sensor_id;sensor_type;location;lat;lon;timestamp;temperature;humidity
63648;DHT22;49792;48.744;9.176;2022-10-16T00:02:08;18.90;66.50
63648;DHT22;49792;48.744;9.176;2022-10-16T00:04:33;18.90;66.50
63648;DHT22;49792;48.744;9.176;2022-10-16T00:06:58;18.90;66.50
63648;DHT22;49792;48.744;9.176;2022-10-16T00:09:24;18.90;66.50
63648;DHT22;49792;48.744;9.176;2022-10-16T00:11:49;18.90;66.50
63648;DHT22;49792;48.744;9.176;2022-10-16T00:14:15;18.90;66.50
63648;DHT22;49792;48.744;9.176;2022-10-16T00:16:41;18.90;66.50
63648;DHT22;49792;48.744;9.176;2022-10-16T00:19:07;18.90;66.60
63648;DHT22;49792;48.744;9.176;2022-10-16T00:21:33;18.80;66.50
63648;DHT22;49792;48.744;9.176;2022-10-16T00:24:03;18.90;66.50
63648;DHT22;49792;48.744;9.176;2022-10-16T00:26:30;18.90;66.60
63648;DHT22;49792;48.744;9.176;2022-10-16T00:28:55;18.90;66.50
63648;DHT22;49792;48.744;9.176;2022-10-16T00:31:21;18.80;66.40
63648;DHT22;49792;48.744;9.176;2022-10-16T00:33:47;18.80;66.50
63648;DHT22;49792;48.744;9.176;2022-10-16T00:36:15;18.90;66.50
63648;DHT22;49792;48.744;9.176;2022-10-16T00:38:40;18.90;66.50
63648;DHT22;49792;48.744;9.176;2022-10-16T00:41:06;18.80;66.50
63648;DHT22;49792;48.744;9.176;2022-10-16T00:46:05;18.90;66.50
63648;DHT22;49792;48.744;9.176;2022-10-16T00:48:33;18.90;66.50
63648;DHT22;49792;48.744;9.176;2022-10-16T00:50:58;18.80;66.40
63648;DHT22;49792;48.744;9.176;2022-10-16T00:53:24;18.80;66.40
63648;DHT22;49792;48.744;9.176;2022-10-16T00:55:50;18.90;66.50
63648;DHT22;49792;48.744;9.176;2022-10-16T00:58:16;18.80;66.40
63648;DHT22;49792;48.744;9.176;2022-10-16T01:00:41;18.90;66.50
63648;DHT22;49792;48.744;9.176;2022-10-16T01:06:24;18.80;66.40
63648;DHT22;49792;48.744;9.176;2022-10-16T01:13:46;18.90;66.50
63648;DHT22;49792;48.744;9.176;2022-10-16T01:16:34;18.80;66.40
63648;DHT22;49792;48.744;9.176;2022-10-16T01:19:08;18.80;66.40
63648;DHT22;49792;48.744;9.176;2022-10-16T01:21:36;18.80;66.40
63648;DHT22;49792;48.744;9.176;2022-10-16T01:29:12;18.80;66.40
63648;DHT22;49792;48.744;9.176;2022-10-16T01:31:39;18.80;66.40
63648;DHT22;49792;48.744;9.176;2022-10-16T01:34:16;18.80;66.40
63648;DHT22;49792;48.744;9.176;2022-10-16T01:36:49;18.80;66.40
63648;DHT22;49792;48.744;9.176;2022-10-16T01:39:15;18.90;66.50
63648;DHT22;49792;48.744;9.176;2022-10-16T01:41:45;18.80;66.40
63648;DHT22;49792;48.744;9.176;2022-10-16T01:44:19;18.80;66.40
63648;DHT22;49792;48.744;9.176;2022-10-16T01:46:46;18.80;66.40
63648;DHT22;49792;48.744;9.176;2022-10-16T01:49:12;18.80;66.40
63648;DHT22;49792;48.744;9.176;2022-10-16T01:51:38;18.80;66.40
63648;DHT22;49792;48.744;9.176;2022-10-16T01:54:04;18.80;66.40
63648;DHT22;49792;48.744;9.176;2022-10-16T01:56:30;18.80;66.40
63648;DHT22;49792;48.744;9.176;2022-10-16T01:59:04;18.80;66.40
63648;DHT22;49792;48.744;9.176;2022-10-16T02:01:31;18.90;66.50
63648;DHT22;49792;48.744;9.176;2022-10-16T02:04:01;18.80;66.40
63648;DHT22;49792;48.744;9.176;2022-10-16T02:06:27;18.80;66.40
63648;DHT22;49792;48.744;9.176;2022-10-16T02:08:53;18.90;66.50
63648;DHT22;49792;48.744;9.176;2022-10-16T02:11:18;18.80;66.40
63648;DHT22;49792;48.744;9.176;2022-10-16T02:13:59;18.90;66.40
63648;DHT22;49792;48.744;9.176;2022-10-16T02:16:33;18.80;66.40
63648;DHT22;49792;48.744;9.176;2022-10-16T02:18:58;18.80;66.40
63648;DHT22;49792;48.744;9.176;2022-10-16T02:21:25;18.80;66.40
63648;DHT22;49792;48.744;9.176;2022-10-16T02:23:56;18.80;66.40
63648;DHT22;49792;48.744;9.176;2022-10-16T02:26:29;18.80;66.40
63648;DHT22;49792;48.744;9.176;2022-10-16T02:28:58;18.80;66.40
63648;DHT22;49792;48.744;9.176;2022-10-16T02:31:26;18.80;66.40
63648;DHT22;49792;48.744;9.176;2022-10-16T02:33:53;18.80;66.40
63648;DHT22;49792;48.744;9.176;2022-10-16T02:36:20;18.80;66.40
63648;DHT22;49792;48.744;9.176;2022-10-16T02:38:46;18.80;66.40
63648;DHT22;49792;48.744;9.176;2022-10-16T02:41:12;18.80;66.40
63648;DHT22;49792;48.744;9.176;2022-10-16T02:43:37;18.80;66.40
63648;DHT22;49792;48.744;9.176;2022-10-16T02:46:03;18.80;66.40
63648;DHT22;49792;48.744;9.176;2022-10-16T02:48:28;18.90;66.50
63648;DHT22;49792;48.744;9.176;2022-10-16T02:50:54;18.80;66.40
63648;DHT22;49792;48.744;9.176;2022-10-16T02:53:19;18.80;66.40
63648;DHT22;49792;48.744;9.176;2022-10-16T02:55:45;18.80;66.40
63648;DHT22;49792;48.744;9.176;2022-10-16T02:58:10;18.80;66.40
63648;DHT22;49792;48.744;9.176;2022-10-16T03:00:36;18.80;66.40
63648;DHT22;49792;48.744;9.176;2022-10-16T03:03:01;18.80;66.40
63648;DHT22;49792;48.744;9.176;2022-10-16T03:05:26;18.80;66.40
63648;DHT22;49792;48.744;9.176;2022-10-16T03:07:52;18.80;66.50
63648;DHT22;49792;48.744;9.176;2022-10-16T03:10:18;18.80;66.40
63648;DHT22;49792;48.744;9.176;2022-10-16T03:12:43;18.80;66.40
63648;DHT22;49792;48.744;9.176;2022-10-16T03:15:09;18.80;67.30
63648;DHT22;49792;48.744;9.176;2022-10-16T03:17:34;18.80;66.40
63648;DHT22;49792;48.744;9.176;2022-10-16T03:20:00;18.80;66.40
63648;DHT22;49792;48.744;9.176;2022-10-16T03:22:25;18.80;66.40
63648;DHT22;49792;48.744;9.176;2022-10-16T03:24:51;18.80;66.40
63648;DHT22;49792;48.744;9.176;2022-10-16T03:27:16;18.80;66.40
63648;DHT22;49792;48.744;9.176;2022-10-16T03:29:42;18.80;66.40
63648;DHT22;49792;48.744;9.176;2022-10-16T03:32:07;18.80;66.40
63648;DHT22;49792;48.744;9.176;2022-10-16T03:34:33;18.80;66.40
63648;DHT22;49792;48.744;9.176;2022-10-16T03:36:58;18.80;66.40
63648;DHT22;49792;48.744;9.176;2022-10-16T03:39:24;18.80;66.40
63648;DHT22;49792;48.744;9.176;2022-10-16T03:41:49;18.80;66.40
63648;DHT22;49792;48.744;9.176;2022-10-16T03:44:15;18.80;66.40
63648;DHT22;49792;48.744;9.176;2022-10-16T03:46:40;18.80;66.40
63648;DHT22;49792;48.744;9.176;2022-10-16T03:49:06;18.80;66.40
63648;DHT22;49792;48.744;9.176;2022-10-16T03:51:31;18.80;66.40
63648;DHT22;49792;48.744;9.176;2022-10-16T03:53:57;18.80;66.40
63648;DHT22;49792;48.744;9.176;2022-10-16T03:56:23;18.80;66.40
63648;DHT22;49792;48.744;9.176;2022-10-16T03:58:48;18.80;66.40
63648;DHT22;49792;48.744;9.176;2022-10-16T04:01:13;18.80;66.40
63648;DHT22;49792;48.744;9.176;2022-10-16T04:03:39;18.80;66.40
63648;DHT22;49792;48.744;9.176;2022-10-16T04:06:04;18.80;66.40
63648;DHT22;49792;48.744;9.176;2022-10-16T04:08:30;18.80;66.40
63648;DHT22;49792;48.744;9.176;2022-10-16T04:10:55;18.80;66.40
63648;DHT22;49792;48.744;9.176;2022-10-16T04:13:21;18.80;66.40
63648;DHT22;49792;48.744;9.176;2022-10-16T04:15:46;18.80;66.40
63648;DHT22;49792;48.744;9.176;2022-10-16T04:18:12;18.80;66.40
63648;DHT22;49792;48.744;9.176;2022-10-16T04:20:37;18.80;66.40
63648;DHT22;49792;48.744;9.176;2022-10-16T04:23:03;18.80;66.40
63648;DHT22;49792;48.744;9.176;2022-10-16T04:25:29;18.80;66.40
63648;DHT22;49792;48.744;9.176;2022-10-16T04:27:55;18.80;66.50
63648;DHT22;49792;48.744;9.176;2022-10-16T04:30:21;18.80;66.40
63648;DHT22;49792;48.744;9.176;2022-10-16T04:32:49;18.80;66.40
63648;DHT22;49792;48.744;9.176;2022-10-16T04:35:16;18.80;66.40
63648;DHT22;49792;48.744;9.176;2022-10-16T04:37:41;18.80;66.40
63648;DHT22;49792;48.744;9.176;2022-10-16T04:40:07;18.80;66.40
63648;DHT22;49792;48.744;9.176;2022-10-16T04:42:32;18.80;66.40
63648;DHT22;49792;48.744;9.176;2022-10-16T04:44:58;18.80;66.40
63648;DHT22;49792;48.744;9.176;2022-10-16T04:47:23;18.80;66.40
63648;DHT22;49792;48.744;9.176;2022-10-16T04:49:49;18.80;66.40
63648;DHT22;49792;48.744;9.176;2022-10-16T04:52:14;18.80;66.40
63648;DHT22;49792;48.744;9.176;2022-10-16T04:54:40;18.80;66.40
63648;DHT22;49792;48.744;9.176;2022-10-16T04:57:05;18.80;66.40
63648;DHT22;49792;48.744;9.176;2022-10-16T04:59:31;18.80;66.40
63648;DHT22;49792;48.744;9.176;2022-10-16T05:01:56;18.80;66.40
63648;DHT22;49792;48.744;9.176;2022-10-16T05:04:22;18.80;66.40
63648;DHT22;49792;48.744;9.176;2022-10-16T05:06:47;18.80;66.40
63648;DHT22;49792;48.744;9.176;2022-10-16T05:09:13;18.80;66.40
63648;DHT22;49792;48.744;9.176;2022-10-16T05:11:38;18.80;66.40
63648;DHT22;49792;48.744;9.176;2022-10-16T05:14:04;18.80;66.40
63648;DHT22;49792;48.744;9.176;2022-10-16T05:16:32;18.80;66.40
63648;DHT22;49792;48.744;9.176;2022-10-16T05:18:58;18.80;66.50
63648;DHT22;49792;48.744;9.176;2022-10-16T05:21:23;18.80;66.40
63648;DHT22;49792;48.744;9.176;2022-10-16T05:23:49;18.80;66.40
63648;DHT22;49792;48.744;9.176;2022-10-16T05:26:14;18.80;66.40
63648;DHT22;49792;48.744;9.176;2022-10-16T05:28:40;18.80;66.70
63648;DHT22;49792;48.744;9.176;2022-10-16T05:31:06;18.80;66.40
63648;DHT22;49792;48.744;9.176;2022-10-16T05:33:32;18.80;66.50
63648;DHT22;49792;48.744;9.176;2022-10-16T05:36:00;18.80;66.40
63648;DHT22;49792;48.744;9.176;2022-10-16T05:38:25;18.80;66.40
63648;DHT22;49792;48.744;9.176;2022-10-16T05:40:51;18.80;66.40
63648;DHT22;49792;48.744;9.176;2022-10-16T05:43:21;18.70;66.30
63648;DHT22;49792;48.744;9.176;2022-10-16T05:46:20;18.80;66.40
63648;DHT22;49792;48.744;9.176;2022-10-16T05:48:38;18.80;66.40
63648;DHT22;49792;48.744;9.176;2022-10-16T05:51:05;18.80;66.40
63648;DHT22;49792;48.744;9.176;2022-10-16T05:53:32;18.80;66.40
63648;DHT22;49792;48.744;9.176;2022-10-16T05:55:58;18.80;66.40
63648;DHT22;49792;48.744;9.176;2022-10-16T05:58:23;18.80;66.40
63648;DHT22;49792;48.744;9.176;2022-10-16T06:00:53;18.80;66.40
63648;DHT22;49792;48.744;9.176;2022-10-16T06:03:18;18.80;66.40
63648;DHT22;49792;48.744;9.176;2022-10-16T06:05:44;18.80;67.30
63648;DHT22;49792;48.744;9.176;2022-10-16T06:08:09;18.80;66.40
63648;DHT22;49792;48.744;9.176;2022-10-16T06:10:35;18.80;66.40
63648;DHT22;49792;48.744;9.176;2022-10-16T06:13:00;18.80;66.40
63648;DHT22;49792;48.744;9.176;2022-10-16T06:15:25;18.80;66.40
63648;DHT22;49792;48.744;9.176;2022-10-16T06:17:51;18.80;66.30
63648;DHT22;49792;48.744;9.176;2022-10-16T06:20:16;18.80;66.40
63648;DHT22;49792;48.744;9.176;2022-10-16T06:22:42;18.80;66.40
63648;DHT22;49792;48.744;9.176;2022-10-16T06:25:07;18.80;66.40
63648;DHT22;49792;48.744;9.176;2022-10-16T06:27:33;18.80;66.40
63648;DHT22;49792;48.744;9.176;2022-10-16T06:29:58;18.80;66.40
63648;DHT22;49792;48.744;9.176;2022-10-16T06:32:24;18.80;66.40
63648;DHT22;49792;48.744;9.176;2022-10-16T06:34:49;18.80;66.40
63648;DHT22;49792;48.744;9.176;2022-10-16T06:37:15;18.80;66.40
63648;DHT22;49792;48.744;9.176;2022-10-16T06:39:40;18.80;66.40
63648;DHT22;49792;48.744;9.176;2022-10-16T06:42:06;18.80;66.40
63648;DHT22;49792;48.744;9.176;2022-10-16T06:44:32;18.80;66.40
63648;DHT22;49792;48.744;9.176;2022-10-16T06:46:57;18.80;66.40
63648;DHT22;49792;48.744;9.176;2022-10-16T06:49:23;18.80;66.40
63648;DHT22;49792;48.744;9.176;2022-10-16T06:51:49;18.80;66.30
63648;DHT22;49792;48.744;9.176;2022-10-16T06:54:15;18.80;66.30
63648;DHT22;49792;48.744;9.176;2022-10-16T06:56:40;18.80;66.30
63648;DHT22;49792;48.744;9.176;2022-10-16T06:59:06;18.80;66.30
63648;DHT22;49792;48.744;9.176;2022-10-16T07:01:31;18.80;66.40
63648;DHT22;49792;48.744;9.176;2022-10-16T07:03:57;18.80;66.30
63648;DHT22;49792;48.744;9.176;2022-10-16T07:06:24;18.80;66.30
63648;DHT22;49792;48.744;9.176;2022-10-16T07:08:50;18.80;66.40
63648;DHT22;49792;48.744;9.176;2022-10-16T07:11:16;18.80;66.30
63648;DHT22;49792;48.744;9.176;2022-10-16T07:13:43;18.80;66.40
63648;DHT22;49792;48.744;9.176;2022-10-16T07:16:10;18.80;66.40
63648;DHT22;49792;48.744;9.176;2022-10-16T07:18:36;18.80;66.40
63648;DHT22;49792;48.744;9.176;2022-10-16T07:21:02;18.80;67.30
63648;DHT22;49792;48.744;9.176;2022-10-16T07:23:28;18.80;66.40
63648;DHT22;49792;48.744;9.176;2022-10-16T07:25:54;18.80;66.40
63648;DHT22;49792;48.744;9.176;2022-10-16T07:28:19;18.80;66.40
63648;DHT22;49792;48.744;9.176;2022-10-16T07:30:45;18.80;66.40
63648;DHT22;49792;48.744;9.176;2022-10-16T07:33:10;18.80;66.40
63648;DHT22;49792;48.744;9.176;2022-10-16T07:35:36;18.80;66.40
63648;DHT22;49792;48.744;9.176;2022-10-16T07:38:01;18.80;66.40
63648;DHT22;49792;48.744;9.176;2022-10-16T07:40:27;18.80;66.40
63648;DHT22;49792;48.744;9.176;2022-10-16T07:42:52;18.80;66.40
63648;DHT22;49792;48.744;9.176;2022-10-16T07:45:18;18.80;66.40
63648;DHT22;49792;48.744;9.176;2022-10-16T07:47:43;18.80;66.40
63648;DHT22;49792;48.744;9.176;2022-10-16T07:50:08;18.80;66.40
63648;DHT22;49792;48.744;9.176;2022-10-16T07:52:34;18.80;66.40
63648;DHT22;49792;48.744;9.176;2022-10-16T07:54:59;18.80;66.40
63648;DHT22;49792;48.744;9.176;2022-10-16T07:57:25;18.80;66.40
63648;DHT22;49792;48.744;9.176;2022-10-16T07:59:50;18.80;66.40
63648;DHT22;49792;48.744;9.176;2022-10-16T08:02:16;18.80;66.40
63648;DHT22;49792;48.744;9.176;2022-10-16T08:04:41;18.80;66.40
63648;DHT22;49792;48.744;9.176;2022-10-16T08:07:07;18.80;66.40
63648;DHT22;49792;48.744;9.176;2022-10-16T08:09:34;18.80;66.40
63648;DHT22;49792;48.744;9.176;2022-10-16T08:11:59;18.80;66.40
63648;DHT22;49792;48.744;9.176;2022-10-16T08:14:24;18.80;66.40
63648;DHT22;49792;48.744;9.176;2022-10-16T08:16:50;18.80;66.40
63648;DHT22;49792;48.744;9.176;2022-10-16T08:19:15;18.80;66.40
63648;DHT22;49792;48.744;9.176;2022-10-16T08:21:41;18.80;66.40
63648;DHT22;49792;48.744;9.176;2022-10-16T08:24:07;18.80;66.40
63648;DHT22;49792;48.744;9.176;2022-10-16T08:26:32;18.80;66.40
63648;DHT22;49792;48.744;9.176;2022-10-16T08:28:58;18.80;66.40
63648;DHT22;49792;48.744;9.176;2022-10-16T08:31:23;18.80;66.40
63648;DHT22;49792;48.744;9.176;2022-10-16T08:33:49;18.80;66.40
63648;DHT22;49792;48.744;9.176;2022-10-16T08:36:15;18.80;66.40
63648;DHT22;49792;48.744;9.176;2022-10-16T08:38:41;18.80;66.40
63648;DHT22;49792;48.744;9.176;2022-10-16T08:43:49;18.80;66.40
63648;DHT22;49792;48.744;9.176;2022-10-16T08:46:21;18.80;66.40
63648;DHT22;49792;48.744;9.176;2022-10-16T08:48:52;18.80;66.40
63648;DHT22;49792;48.744;9.176;2022-10-16T08:51:26;18.80;66.40
63648;DHT22;49792;48.744;9.176;2022-10-16T08:53:58;18.80;66.40
63648;DHT22;49792;48.744;9.176;2022-10-16T08:56:24;18.90;66.40
63648;DHT22;49792;48.744;9.176;2022-10-16T08:58:50;18.90;66.50
63648;DHT22;49792;48.744;9.176;2022-10-16T09:01:17;18.90;66.40
63648;DHT22;49792;48.744;9.176;2022-10-16T09:09:06;18.80;66.40
63648;DHT22;49792;48.744;9.176;2022-10-16T09:11:50;18.90;66.40
63648;DHT22;49792;48.744;9.176;2022-10-16T09:20:00;18.80;66.40
63648;DHT22;49792;48.744;9.176;2022-10-16T09:22:27;18.90;66.40
63648;DHT22;49792;48.744;9.176;2022-10-16T09:24:54;18.90;66.50
63648;DHT22;49792;48.744;9.176;2022-10-16T09:27:20;18.90;66.40
63648;DHT22;49792;48.744;9.176;2022-10-16T09:29:45;18.90;66.40
63648;DHT22;49792;48.744;9.176;2022-10-16T09:32:15;18.80;66.30
63648;DHT22;49792;48.744;9.176;2022-10-16T09:34:43;18.90;66.40
63648;DHT22;49792;48.744;9.176;2022-10-16T09:37:10;18.90;66.40
63648;DHT22;49792;48.744;9.176;2022-10-16T09:39:47;18.90;66.40
63648;DHT22;49792;48.744;9.176;2022-10-16T09:42:14;18.90;66.40
63648;DHT22;49792;48.744;9.176;2022-10-16T09:44:40;18.90;66.40
63648;DHT22;49792;48.744;9.176;2022-10-16T09:47:12;18.90;66.40
63648;DHT22;49792;48.744;9.176;2022-10-16T09:49:38;18.90;66.40
63648;DHT22;49792;48.744;9.176;2022-10-16T09:52:04;18.90;66.30
63648;DHT22;49792;48.744;9.176;2022-10-16T09:54:30;18.90;66.30
63648;DHT22;49792;48.744;9.176;2022-10-16T09:57:06;18.90;66.30
63648;DHT22;49792;48.744;9.176;2022-10-16T09:59:31;18.90;66.30
63648;DHT22;49792;48.744;9.176;2022-10-16T10:01:58;19.00;66.40
63648;DHT22;49792;48.744;9.176;2022-10-16T10:04:36;18.90;66.30
63648;DHT22;49792;48.744;9.176;2022-10-16T10:07:02;18.90;66.30
63648;DHT22;49792;48.744;9.176;2022-10-16T10:09:29;18.80;66.30
63648;DHT22;49792;48.744;9.176;2022-10-16T10:12:01;18.90;66.30
63648;DHT22;49792;48.744;9.176;2022-10-16T10:14:36;19.00;66.30
63648;DHT22;49792;48.744;9.176;2022-10-16T10:19:37;18.90;66.20
63648;DHT22;49792;48.744;9.176;2022-10-16T10:22:13;19.00;66.30
63648;DHT22;49792;48.744;9.176;2022-10-16T10:24:41;19.00;66.30
63648;DHT22;49792;48.744;9.176;2022-10-16T10:27:08;19.00;66.30
63648;DHT22;49792;48.744;9.176;2022-10-16T10:40:01;19.00;66.30
63648;DHT22;49792;48.744;9.176;2022-10-16T10:42:39;19.00;66.20
63648;DHT22;49792;48.744;9.176;2022-10-16T10:50:26;19.00;66.20
63648;DHT22;49792;48.744;9.176;2022-10-16T10:57:56;19.00;66.70
63648;DHT22;49792;48.744;9.176;2022-10-16T11:03:26;19.00;66.10
63648;DHT22;49792;48.744;9.176;2022-10-16T11:05:55;19.00;66.10
63648;DHT22;49792;48.744;9.176;2022-10-16T11:11:00;19.00;66.10
63648;DHT22;49792;48.744;9.176;2022-10-16T11:13:32;19.00;66.10
63648;DHT22;49792;48.744;9.176;2022-10-16T11:16:00;19.00;66.10
63648;DHT22;49792;48.744;9.176;2022-10-16T11:18:30;19.00;66.10
63648;DHT22;49792;48.744;9.176;2022-10-16T11:20:59;19.00;66.10
63648;DHT22;49792;48.744;9.176;2022-10-16T11:23:35;19.00;66.10
63648;DHT22;49792;48.744;9.176;2022-10-16T11:26:04;19.00;66.10
63648;DHT22;49792;48.744;9.176;2022-10-16T11:28:39;19.00;66.10
63648;DHT22;49792;48.744;9.176;2022-10-16T11:38:49;19.10;66.10
63648;DHT22;49792;48.744;9.176;2022-10-16T11:41:22;19.10;65.90
63648;DHT22;49792;48.744;9.176;2022-10-16T11:43:56;19.10;66.00
63648;DHT22;49792;48.744;9.176;2022-10-16T11:46:25;19.10;66.00
63648;DHT22;49792;48.744;9.176;2022-10-16T11:48:54;19.10;66.10
63648;DHT22;49792;48.744;9.176;2022-10-16T11:56:15;19.10;66.40
63648;DHT22;49792;48.744;9.176;2022-10-16T11:58:45;19.10;67.20
63648;DHT22;49792;48.744;9.176;2022-10-16T12:01:22;19.10;66.40
63648;DHT22;49792;48.744;9.176;2022-10-16T12:03:50;19.10;66.50
63648;DHT22;49792;48.744;9.176;2022-10-16T12:09:09;19.20;66.20
63648;DHT22;49792;48.744;9.176;2022-10-16T12:11:37;19.10;66.30
63648;DHT22;49792;48.744;9.176;2022-10-16T12:14:33;19.20;66.30
63648;DHT22;49792;48.744;9.176;2022-10-16T12:16:53;19.30;66.20
63648;DHT22;49792;48.744;9.176;2022-10-16T12:19:19;19.30;66.00
63648;DHT22;49792;48.744;9.176;2022-10-16T12:21:45;19.20;66.10
63648;DHT22;49792;48.744;9.176;2022-10-16T12:26:55;19.30;66.20
63648;DHT22;49792;48.744;9.176;2022-10-16T12:29:29;19.20;66.00
63648;DHT22;49792;48.744;9.176;2022-10-16T12:31:57;19.20;67.40
63648;DHT22;49792;48.744;9.176;2022-10-16T12:34:25;19.20;66.90
63648;DHT22;49792;48.744;9.176;2022-10-16T12:36:52;19.40;66.30
63648;DHT22;49792;48.744;9.176;2022-10-16T12:39:24;19.60;66.20
63648;DHT22;49792;48.744;9.176;2022-10-16T12:42:03;19.60;65.90
63648;DHT22;49792;48.744;9.176;2022-10-16T12:44:33;19.50;66.10
63648;DHT22;49792;48.744;9.176;2022-10-16T12:46:59;19.40;66.20
63648;DHT22;49792;48.744;9.176;2022-10-16T12:51:53;19.40;67.00
63648;DHT22;49792;48.744;9.176;2022-10-16T12:54:25;19.40;66.90
63648;DHT22;49792;48.744;9.176;2022-10-16T12:57:17;19.50;66.90
63648;DHT22;49792;48.744;9.176;2022-10-16T13:05:38;19.50;66.20
63648;DHT22;49792;48.744;9.176;2022-10-16T13:18:46;19.50;66.50
63648;DHT22;49792;48.744;9.176;2022-10-16T13:23:59;19.60;66.40
63648;DHT22;49792;48.744;9.176;2022-10-16T13:28:58;19.60;66.00
63648;DHT22;49792;48.744;9.176;2022-10-16T13:31:23;19.60;66.30
63648;DHT22;49792;48.744;9.176;2022-10-16T13:33:51;19.60;66.20
63648;DHT22;49792;48.744;9.176;2022-10-16T13:36:23;19.60;65.80
63648;DHT22;49792;48.744;9.176;2022-10-16T13:38:58;19.60;66.10
63648;DHT22;49792;48.744;9.176;2022-10-16T13:41:25;19.60;66.30
63648;DHT22;49792;48.744;9.176;2022-10-16T13:43:51;19.60;65.90
63648;DHT22;49792;48.744;9.176;2022-10-16T13:46:18;19.70;66.10
63648;DHT22;49792;48.744;9.176;2022-10-16T13:48:44;19.60;66.00
63648;DHT22;49792;48.744;9.176;2022-10-16T13:51:21;19.60;66.00
63648;DHT22;49792;48.744;9.176;2022-10-16T13:53:47;19.70;65.90
63648;DHT22;49792;48.744;9.176;2022-10-16T13:56:20;19.70;65.60
63648;DHT22;49792;48.744;9.176;2022-10-16T13:58:57;19.70;65.70
63648;DHT22;49792;48.744;9.176;2022-10-16T14:01:23;19.70;65.80
63648;DHT22;49792;48.744;9.176;2022-10-16T14:03:49;19.70;65.90
63648;DHT22;49792;48.744;9.176;2022-10-16T14:06:20;19.70;65.70
63648;DHT22;49792;48.744;9.176;2022-10-16T14:08:49;19.70;65.90
63648;DHT22;49792;48.744;9.176;2022-10-16T14:11:20;19.70;66.00
63648;DHT22;49792;48.744;9.176;2022-10-16T14:13:46;19.70;65.90
63648;DHT22;49792;48.744;9.176;2022-10-16T14:16:46;19.70;65.60
63648;DHT22;49792;48.744;9.176;2022-10-16T14:19:04;19.70;65.70
63648;DHT22;49792;48.744;9.176;2022-10-16T14:21:32;19.80;65.80
63648;DHT22;49792;48.744;9.176;2022-10-16T14:23:58;19.80;65.70
63648;DHT22;49792;48.744;9.176;2022-10-16T14:26:26;19.80;66.10
63648;DHT22;49792;48.744;9.176;2022-10-16T14:29:03;19.80;66.00
63648;DHT22;49792;48.744;9.176;2022-10-16T14:31:31;19.80;65.90
63648;DHT22;49792;48.744;9.176;2022-10-16T14:33:57;19.80;65.90
63648;DHT22;49792;48.744;9.176;2022-10-16T14:36:22;19.80;66.10
63648;DHT22;49792;48.744;9.176;2022-10-16T14:41:20;19.80;65.90
63648;DHT22;49792;48.744;9.176;2022-10-16T14:43:49;19.80;65.70
63648;DHT22;49792;48.744;9.176;2022-10-16T14:46:17;19.80;65.70
63648;DHT22;49792;48.744;9.176;2022-10-16T14:48:44;19.80;65.70
63648;DHT22;49792;48.744;9.176;2022-10-16T14:51:14;19.80;65.60
63648;DHT22;49792;48.744;9.176;2022-10-16T14:53:40;19.90;65.70
63648;DHT22;49792;48.744;9.176;2022-10-16T14:56:06;19.90;65.60
63648;DHT22;49792;48.744;9.176;2022-10-16T14:58:32;19.90;65.50
63648;DHT22;49792;48.744;9.176;2022-10-16T15:00:57;20.10;65.90
63648;DHT22;49792;48.744;9.176;2022-10-16T15:03:23;20.10;65.30
63648;DHT22;49792;48.744;9.176;2022-10-16T15:05:48;20.00;65.80
63648;DHT22;49792;48.744;9.176;2022-10-16T15:08:14;19.90;66.20
63648;DHT22;49792;48.744;9.176;2022-10-16T15:10:41;19.80;66.10
63648;DHT22;49792;48.744;9.176;2022-10-16T15:13:08;19.70;66.30
63648;DHT22;49792;48.744;9.176;2022-10-16T15:15:36;19.70;66.60
63648;DHT22;49792;48.744;9.176;2022-10-16T15:18:03;19.70;66.40
63648;DHT22;49792;48.744;9.176;2022-10-16T15:20:30;19.80;66.40
63648;DHT22;49792;48.744;9.176;2022-10-16T15:22:59;19.80;66.40
63648;DHT22;49792;48.744;9.176;2022-10-16T15:25:33;19.80;66.20
63648;DHT22;49792;48.744;9.176;2022-10-16T15:27:59;19.90;66.50
63648;DHT22;49792;48.744;9.176;2022-10-16T15:30:25;20.00;66.10
63648;DHT22;49792;48.744;9.176;2022-10-16T15:32:51;20.00;65.90
63648;DHT22;49792;48.744;9.176;2022-10-16T15:35:16;20.00;66.00
63648;DHT22;49792;48.744;9.176;2022-10-16T15:37:42;20.00;66.90
63648;DHT22;49792;48.744;9.176;2022-10-16T15:40:08;20.10;66.70
63648;DHT22;49792;48.744;9.176;2022-10-16T15:42:34;20.00;66.40
63648;DHT22;49792;48.744;9.176;2022-10-16T15:44:59;20.10;66.60
63648;DHT22;49792;48.744;9.176;2022-10-16T15:47:25;20.00;66.90
63648;DHT22;49792;48.744;9.176;2022-10-16T15:49:50;20.00;66.60
63648;DHT22;49792;48.744;9.176;2022-10-16T15:52:16;20.00;67.00
63648;DHT22;49792;48.744;9.176;2022-10-16T15:54:42;20.10;67.00
63648;DHT22;49792;48.744;9.176;2022-10-16T15:57:07;20.20;68.00
63648;DHT22;49792;48.744;9.176;2022-10-16T15:59:33;20.10;67.10
63648;DHT22;49792;48.744;9.176;2022-10-16T16:01:58;20.10;67.30
63648;DHT22;49792;48.744;9.176;2022-10-16T16:04:24;20.10;67.00
63648;DHT22;49792;48.744;9.176;2022-10-16T16:06:49;20.10;66.90
63648;DHT22;49792;48.744;9.176;2022-10-16T16:09:15;20.10;67.00
63648;DHT22;49792;48.744;9.176;2022-10-16T16:11:40;20.10;66.90
63648;DHT22;49792;48.744;9.176;2022-10-16T16:14:06;20.20;67.10
63648;DHT22;49792;48.744;9.176;2022-10-16T16:16:32;20.20;67.20
63648;DHT22;49792;48.744;9.176;2022-10-16T16:19:03;20.10;67.30
63648;DHT22;49792;48.744;9.176;2022-10-16T16:21:28;20.10;67.20
63648;DHT22;49792;48.744;9.176;2022-10-16T16:23:54;20.10;67.30
63648;DHT22;49792;48.744;9.176;2022-10-16T16:26:23;20.10;67.10
63648;DHT22;49792;48.744;9.176;2022-10-16T16:28:53;20.10;67.40
63648;DHT22;49792;48.744;9.176;2022-10-16T16:31:19;20.00;67.40
63648;DHT22;49792;48.744;9.176;2022-10-16T16:33:45;20.10;67.50
63648;DHT22;49792;48.744;9.176;2022-10-16T16:36:11;20.10;67.40
63648;DHT22;49792;48.744;9.176;2022-10-16T16:38:36;20.10;67.40
63648;DHT22;49792;48.744;9.176;2022-10-16T16:41:12;20.10;67.40
63648;DHT22;49792;48.744;9.176;2022-10-16T16:43:38;20.10;67.40
63648;DHT22;49792;48.744;9.176;2022-10-16T16:46:03;20.10;67.20
63648;DHT22;49792;48.744;9.176;2022-10-16T16:48:29;20.10;67.10
63648;DHT22;49792;48.744;9.176;2022-10-16T16:50:54;20.10;67.30
63648;DHT22;49792;48.744;9.176;2022-10-16T16:53:20;20.20;67.00
63648;DHT22;49792;48.744;9.176;2022-10-16T16:55:45;20.20;66.80
63648;DHT22;49792;48.744;9.176;2022-10-16T16:58:11;20.20;67.00
63648;DHT22;49792;48.744;9.176;2022-10-16T17:00:36;20.20;67.60
63648;DHT22;49792;48.744;9.176;2022-10-16T17:03:02;20.20;67.30
63648;DHT22;49792;48.744;9.176;2022-10-16T17:05:27;20.30;67.40
63648;DHT22;49792;48.744;9.176;2022-10-16T17:07:53;20.40;66.70
63648;DHT22;49792;48.744;9.176;2022-10-16T17:10:18;20.40;66.80
63648;DHT22;49792;48.744;9.176;2022-10-16T17:12:44;20.30;67.60
63648;DHT22;49792;48.744;9.176;2022-10-16T17:15:09;20.30;68.10